Time;durP1;ratioP1;P1;durP2;ratioP2;P2;SDS_P1;SDS_P2;PMS_P1;PMS_P2;Temp;Humidity;BMP_temperature;BMP_pressure;BME280_temperature;BME280_humidity;BME280_pressure;Samples;Min_cycle;Max_cycle;Signal;HPM_P1;HPM_P2
2020/12/04 00:01:15;;;;;;;;;;;14.00;73.50;;;;;;2081211;28;713;-60
2020/12/04 00:02:34;;;;;;;;;;;14.00;73.60;;;;;;2087464;28;1298;-59
2020/12/04 00:03:54;;;;;;;;;;;13.90;73.60;;;;;;2081278;28;743;-60
2020/12/04 00:05:13;;;;;;;;;;;13.90;73.60;;;;;;2077346;28;713;-60
2020/12/04 00:06:32;;;;;;;;;;;13.90;74.40;;;;;;2081568;28;660;-59
2020/12/04 00:07:51;;;;;;;;;;;13.90;73.80;;;;;;2081801;28;734;-60
2020/12/04 00:09:11;;;;;;;;;;;13.90;74.00;;;;;;2072927;28;715;-59
2020/12/04 00:10:30;;;;;;;;;;;13.90;74.00;;;;;;2074859;28;716;-60
2020/12/04 00:11:49;;;;;;;;;;;13.90;74.10;;;;;;2078108;28;747;-60
2020/12/04 00:13:08;;;;;;;;;;;13.90;74.00;;;;;;2081177;28;718;-59
2020/12/04 00:14:27;;;;;;;;;;;13.90;74.20;;;;;;2081132;28;736;-60
2020/12/04 00:15:47;;;;;;;;;;;13.90;74.20;;;;;;2073201;28;722;-60
2020/12/04 00:17:06;;;;;;;;;;;13.90;74.40;;;;;;2077799;28;1968;-60
2020/12/04 00:18:25;;;;;;;;;;;13.90;74.40;;;;;;2078158;28;516;-60
2020/12/04 00:19:44;;;;;;;;;;;13.90;74.40;;;;;;2069857;28;722;-60
2020/12/04 00:21:04;;;;;;;;;;;13.90;74.40;;;;;;2076572;28;1901;-60
2020/12/04 00:22:23;;;;;;;;;;;13.90;74.40;;;;;;2081634;28;1350;-61
2020/12/04 00:23:42;;;;;;;;;;;13.80;74.40;;;;;;2081208;28;834;-61
2020/12/04 00:25:01;;;;;;;;;;;13.90;74.50;;;;;;2069037;28;770;-59
2020/12/04 00:26:20;;;;;;;;;;;13.80;74.50;;;;;;2074750;28;738;-61
2020/12/04 00:27:40;;;;;;;;;;;13.80;74.60;;;;;;2081432;28;739;-60
2020/12/04 00:28:59;;;;;;;;;;;13.80;74.70;;;;;;2081024;28;747;-61
2020/12/04 00:30:18;;;;;;;;;;;13.80;74.80;;;;;;2078049;28;769;-60
2020/12/04 00:31:38;;;;;;;;;;;13.80;74.70;;;;;;2069608;28;733;-60
2020/12/04 00:32:57;;;;;;;;;;;13.80;74.80;;;;;;2078285;28;767;-60
2020/12/04 00:34:16;;;;;;;;;;;13.80;74.90;;;;;;2081360;28;617;-60
2020/12/04 00:35:35;;;;;;;;;;;13.80;75.00;;;;;;2069016;28;723;-60
2020/12/04 00:36:55;;;;;;;;;;;13.80;75.00;;;;;;2066638;28;717;-62
2020/12/04 00:38:14;;;;;;;;;;;13.80;75.10;;;;;;2074677;28;712;-61
2020/12/04 00:39:34;;;;;;;;;;;13.80;75.20;;;;;;2081471;28;693;-61
2020/12/04 00:40:53;;;;;;;;;;;13.80;75.90;;;;;;2091622;28;932;-60
2020/12/04 00:42:12;;;;;;;;;;;13.70;75.10;;;;;;2089508;28;1416;-60
2020/12/04 00:43:31;;;;;;;;;;;13.70;75.90;;;;;;2089641;28;747;-61
2020/12/04 00:44:50;;;;;;;;;;;13.70;75.10;;;;;;2088361;28;815;-60
2020/12/04 00:46:12;;;;;;;;;;;13.70;75.20;;;;;;2085658;28;754;-60
2020/12/04 00:47:32;;;;;;;;;;;13.70;75.30;;;;;;2078009;28;738;-61
2020/12/04 00:48:51;;;;;;;;;;;13.70;75.30;;;;;;2074230;28;754;-62
2020/12/04 00:50:10;;;;;;;;;;;13.70;75.40;;;;;;2082511;28;762;-62
2020/12/04 00:51:30;;;;;;;;;;;13.70;75.50;;;;;;2085708;28;833;-62
2020/12/04 00:52:50;;;;;;;;;;;13.70;75.60;;;;;;2080545;28;1342;-61
2020/12/04 00:54:09;;;;;;;;;;;13.70;75.60;;;;;;2082469;28;885;-60
2020/12/04 00:55:29;;;;;;;;;;;13.70;76.40;;;;;;2077075;28;742;-60
2020/12/04 00:56:49;;;;;;;;;;;13.70;76.30;;;;;;2080800;28;770;-63
2020/12/04 00:58:19;;;;;;;;;;;13.70;75.70;;;;;;2076937;28;789;-59
2020/12/04 00:59:39;;;;;;;;;;;13.70;75.80;;;;;;2084047;28;796;-62
2020/12/04 01:00:59;;;;;;;;;;;13.70;75.80;;;;;;2086770;28;731;-60
2020/12/04 01:02:18;;;;;;;;;;;13.60;75.80;;;;;;2086421;28;1459;-60
2020/12/04 01:03:37;;;;;;;;;;;13.60;75.90;;;;;;2085097;28;767;-62
2020/12/04 01:04:56;;;;;;;;;;;13.60;75.90;;;;;;2085949;28;766;-61
2020/12/04 01:06:16;;;;;;;;;;;13.70;76.30;;;;;;2086063;28;753;-63
2020/12/04 01:07:35;;;;;;;;;;;13.60;76.00;;;;;;2084656;28;973;-60
2020/12/04 01:08:54;;;;;;;;;;;13.60;76.00;;;;;;2084681;28;776;-61
2020/12/04 01:10:13;;;;;;;;;;;13.60;76.10;;;;;;2085928;28;765;-60
2020/12/04 01:11:32;;;;;;;;;;;13.60;76.10;;;;;;2087091;28;737;-63
2020/12/04 01:12:51;;;;;;;;;;;13.60;76.90;;;;;;2069838;28;756;-62
2020/12/04 01:14:11;;;;;;;;;;;13.60;76.20;;;;;;2079318;28;753;-62
2020/12/04 01:15:30;;;;;;;;;;;13.60;76.20;;;;;;2077384;28;776;-61
2020/12/04 01:16:49;;;;;;;;;;;13.60;76.30;;;;;;2085872;28;716;-62
2020/12/04 01:18:08;;;;;;;;;;;13.60;77.10;;;;;;2088867;28;762;-61
2020/12/04 01:19:27;;;;;;;;;;;13.60;77.00;;;;;;2085588;28;734;-61
2020/12/04 01:20:47;;;;;;;;;;;13.60;76.50;;;;;;2089430;28;701;-62
2020/12/04 01:22:06;;;;;;;;;;;13.60;76.50;;;;;;2088879;28;1385;-62
2020/12/04 01:23:25;;;;;;;;;;;13.60;76.50;;;;;;2087147;28;803;-62
2020/12/04 01:24:45;;;;;;;;;;;13.50;76.50;;;;;;2081517;28;733;-62
2020/12/04 01:26:04;;;;;;;;;;;13.50;76.50;;;;;;2081141;28;1216;-61
2020/12/04 01:27:23;;;;;;;;;;;13.50;76.60;;;;;;2087093;28;1502;-60
2020/12/04 01:28:42;;;;;;;;;;;13.50;76.50;;;;;;2082418;28;628;-62
2020/12/04 01:30:02;;;;;;;;;;;13.50;76.60;;;;;;2081943;28;722;-60
2020/12/04 01:31:21;;;;;;;;;;;13.50;76.60;;;;;;2082569;28;709;-60
2020/12/04 01:32:40;;;;;;;;;;;13.50;76.70;;;;;;2082766;28;1503;-59
2020/12/04 01:34:00;;;;;;;;;;;13.50;76.70;;;;;;2081907;28;707;-60
2020/12/04 01:35:19;;;;;;;;;;;13.50;76.70;;;;;;2078178;28;724;-60
2020/12/04 01:36:38;;;;;;;;;;;13.50;77.50;;;;;;2082349;28;724;-58
2020/12/04 01:37:57;;;;;;;;;;;13.50;76.80;;;;;;2082295;28;1973;-60
2020/12/04 01:39:17;;;;;;;;;;;13.50;76.80;;;;;;2081846;28;2273;-61
2020/12/04 01:40:36;;;;;;;;;;;13.50;76.70;;;;;;2080557;28;1478;-58
2020/12/04 01:41:56;;;;;;;;;;;13.50;76.90;;;;;;2090548;28;1629;-61
2020/12/04 01:43:15;;;;;;;;;;;13.40;76.80;;;;;;2082255;28;765;-60
2020/12/04 01:44:34;;;;;;;;;;;13.50;76.90;;;;;;2078600;28;1051;-60
2020/12/04 01:45:53;;;;;;;;;;;13.40;76.90;;;;;;2075600;28;738;-59
2020/12/04 01:47:13;;;;;;;;;;;13.40;76.90;;;;;;2083907;28;712;-59
2020/12/04 01:48:32;;;;;;;;;;;13.40;76.90;;;;;;2078735;28;762;-62
2020/12/04 01:49:51;;;;;;;;;;;13.50;77.10;;;;;;2083641;28;723;-61
2020/12/04 01:51:10;;;;;;;;;;;13.40;77.00;;;;;;2081862;28;747;-60
2020/12/04 01:52:29;;;;;;;;;;;13.40;77.00;;;;;;2083431;28;1381;-59
2020/12/04 01:53:49;;;;;;;;;;;13.40;77.80;;;;;;2086664;28;895;-61
2020/12/04 01:55:08;;;;;;;;;;;13.40;77.80;;;;;;2086315;28;725;-60
2020/12/04 01:56:29;;;;;;;;;;;13.40;77.10;;;;;;2086571;28;768;-62
2020/12/04 01:57:48;;;;;;;;;;;13.40;77.10;;;;;;2078680;28;1957;-61
2020/12/04 01:59:07;;;;;;;;;;;13.40;77.20;;;;;;2080474;28;1374;-62
2020/12/04 02:00:26;;;;;;;;;;;13.40;77.20;;;;;;2078584;28;826;-60
2020/12/04 02:01:46;;;;;;;;;;;13.40;77.30;;;;;;2078489;28;756;-60
2020/12/04 02:03:06;;;;;;;;;;;13.40;77.30;;;;;;2078444;28;794;-63
2020/12/04 02:04:25;;;;;;;;;;;13.40;77.20;;;;;;2070527;28;732;-62
2020/12/04 02:05:48;;;;;;;;;;;13.40;77.30;;;;;;2078950;28;2052;-61
2020/12/04 02:07:08;;;;;;;;;;;13.40;77.30;;;;;;2087626;28;1592;-61
2020/12/04 02:08:29;;;;;;;;;;;13.40;77.30;;;;;;2071079;28;1380;-61
2020/12/04 02:09:50;;;;;;;;;;;13.40;77.30;;;;;;2084230;28;738;-60
2020/12/04 02:11:18;;;;;;;;;;;13.30;77.30;;;;;;2087227;28;745;-60
2020/12/04 02:12:37;;;;;;;;;;;13.30;77.30;;;;;;2079777;28;1389;-60
2020/12/04 02:13:56;;;;;;;;;;;13.30;77.20;;;;;;2078735;28;734;-62
2020/12/04 02:15:16;;;;;;;;;;;13.30;77.20;;;;;;2073390;28;1229;-60
2020/12/04 02:16:39;;;;;;;;;;;13.30;77.20;;;;;;2071807;28;1001;-62
2020/12/04 02:17:58;;;;;;;;;;;13.30;77.50;;;;;;2084440;28;1958;-60
2020/12/04 02:19:17;;;;;;;;;;;13.30;77.30;;;;;;2078318;28;790;-60
2020/12/04 02:20:36;;;;;;;;;;;13.30;77.50;;;;;;2075411;28;738;-60
2020/12/04 02:21:56;;;;;;;;;;;13.30;78.30;;;;;;2086613;28;1337;-61
2020/12/04 02:23:15;;;;;;;;;;;13.30;77.60;;;;;;2086808;28;737;-60
2020/12/04 02:24:34;;;;;;;;;;;13.30;77.60;;;;;;2086668;28;787;-61
2020/12/04 02:25:56;;;;;;;;;;;13.30;77.60;;;;;;2086679;28;765;-60
2020/12/04 02:27:16;;;;;;;;;;;13.30;77.60;;;;;;2070859;28;717;-61
2020/12/04 02:28:35;;;;;;;;;;;13.30;77.50;;;;;;2080239;28;820;-60
2020/12/04 02:29:54;;;;;;;;;;;13.30;77.70;;;;;;2078290;28;748;-61
2020/12/04 02:31:13;;;;;;;;;;;13.30;77.60;;;;;;2086801;28;807;-60
2020/12/04 02:32:32;;;;;;;;;;;13.30;77.60;;;;;;2090199;28;1326;-60
2020/12/04 02:33:52;;;;;;;;;;;13.30;77.60;;;;;;2089372;28;732;-61
2020/12/04 02:35:11;;;;;;;;;;;13.30;78.30;;;;;;2080988;28;748;-60
2020/12/04 02:36:30;;;;;;;;;;;13.30;78.30;;;;;;2086166;28;736;-61
2020/12/04 02:37:49;;;;;;;;;;;13.30;77.70;;;;;;2086368;28;1895;-61
2020/12/04 02:39:08;;;;;;;;;;;13.30;77.70;;;;;;2086592;28;726;-61
2020/12/04 02:40:28;;;;;;;;;;;13.30;77.60;;;;;;2081690;28;745;-60
2020/12/04 02:41:47;;;;;;;;;;;13.20;77.50;;;;;;2086789;28;833;-61
2020/12/04 02:43:06;;;;;;;;;;;13.20;77.50;;;;;;2081694;28;739;-61
2020/12/04 02:44:25;;;;;;;;;;;13.30;77.60;;;;;;2083610;28;1283;-60
2020/12/04 02:45:45;;;;;;;;;;;13.20;77.50;;;;;;2089559;28;1415;-62
2020/12/04 02:47:04;;;;;;;;;;;13.20;77.60;;;;;;2095021;28;742;-59
2020/12/04 02:48:23;;;;;;;;;;;13.20;77.60;;;;;;2089725;28;768;-61
2020/12/04 02:49:42;;;;;;;;;;;13.20;77.70;;;;;;2095309;28;710;-61
2020/12/04 02:51:02;;;;;;;;;;;13.20;77.70;;;;;;2098025;28;754;-61
2020/12/04 02:52:22;;;;;;;;;;;13.20;77.70;;;;;;2094732;28;1353;-60
2020/12/04 02:53:41;;;;;;;;;;;13.20;78.40;;;;;;2088079;28;1840;-60
2020/12/04 02:55:00;;;;;;;;;;;13.20;77.70;;;;;;2087544;28;965;-62
2020/12/04 02:56:19;;;;;;;;;;;13.20;77.80;;;;;;2087039;28;1001;-60
2020/12/04 02:57:39;;;;;;;;;;;13.20;77.80;;;;;;2078229;28;1981;-61
2020/12/04 02:58:58;;;;;;;;;;;13.20;77.80;;;;;;2078225;28;714;-60
2020/12/04 03:00:17;;;;;;;;;;;13.20;77.80;;;;;;2085445;28;1097;-61
2020/12/04 03:01:37;;;;;;;;;;;13.20;77.80;;;;;;2077320;28;1421;-61
2020/12/04 03:02:56;;;;;;;;;;;13.20;77.80;;;;;;2074761;28;1278;-61
2020/12/04 03:04:16;;;;;;;;;;;13.20;77.90;;;;;;2085575;28;1130;-60
2020/12/04 03:05:35;;;;;;;;;;;13.20;77.90;;;;;;2072315;28;710;-60
2020/12/04 03:06:54;;;;;;;;;;;13.20;78.00;;;;;;2074822;28;746;-60
2020/12/04 03:08:13;;;;;;;;;;;13.20;78.00;;;;;;2078162;28;752;-61
2020/12/04 03:09:33;;;;;;;;;;;13.10;77.90;;;;;;2078148;28;729;-60
2020/12/04 03:10:52;;;;;;;;;;;13.10;78.60;;;;;;2070003;28;800;-60
2020/12/04 03:12:12;;;;;;;;;;;13.10;77.90;;;;;;2074823;28;1455;-60
2020/12/04 03:13:31;;;;;;;;;;;13.10;78.50;;;;;;2069342;28;725;-61
2020/12/04 03:14:50;;;;;;;;;;;13.10;77.80;;;;;;2077304;28;743;-62
2020/12/04 03:16:09;;;;;;;;;;;13.10;78.00;;;;;;2072769;28;724;-61
2020/12/04 03:17:29;;;;;;;;;;;13.10;77.90;;;;;;2074548;28;1898;-60
2020/12/04 03:18:48;;;;;;;;;;;13.10;78.00;;;;;;2077837;28;746;-62
2020/12/04 03:20:07;;;;;;;;;;;13.10;77.90;;;;;;2078107;28;758;-60
2020/12/04 03:21:26;;;;;;;;;;;13.10;77.90;;;;;;2078004;28;721;-62
2020/12/04 03:22:46;;;;;;;;;;;13.10;77.80;;;;;;2069546;28;1367;-62
2020/12/04 03:24:05;;;;;;;;;;;13.10;78.10;;;;;;2066764;28;750;-61
2020/12/04 03:25:24;;;;;;;;;;;13.10;78.00;;;;;;2080287;28;1060;-60
2020/12/04 03:26:43;;;;;;;;;;;13.10;78.00;;;;;;2091334;28;1000;-62
2020/12/04 03:28:03;;;;;;;;;;;13.10;78.00;;;;;;2089941;28;726;-60
2020/12/04 03:29:22;;;;;;;;;;;13.10;78.10;;;;;;2089364;28;794;-61
2020/12/04 03:30:41;;;;;;;;;;;13.10;78.10;;;;;;2086317;28;720;-60
2020/12/04 03:32:00;;;;;;;;;;;13.10;78.70;;;;;;2089532;28;1368;-61
2020/12/04 03:33:19;;;;;;;;;;;13.00;77.90;;;;;;2089486;28;780;-61
2020/12/04 03:34:39;;;;;;;;;;;13.00;77.90;;;;;;2089944;28;719;-59
2020/12/04 03:35:58;;;;;;;;;;;13.00;77.90;;;;;;2081236;28;697;-60
2020/12/04 03:37:17;;;;;;;;;;;13.00;78.00;;;;;;2074475;28;1902;-61
2020/12/04 03:38:36;;;;;;;;;;;13.00;77.90;;;;;;2082603;28;760;-60
2020/12/04 03:39:56;;;;;;;;;;;13.00;78.00;;;;;;2089873;28;763;-60
2020/12/04 03:41:15;;;;;;;;;;;13.00;77.90;;;;;;2089471;28;780;-62
2020/12/04 03:42:34;;;;;;;;;;;13.00;78.00;;;;;;2089737;28;1448;-60
2020/12/04 03:43:53;;;;;;;;;;;13.00;78.00;;;;;;2089806;28;728;-62
2020/12/04 03:45:13;;;;;;;;;;;13.00;78.20;;;;;;2088464;28;737;-61
2020/12/04 03:46:32;;;;;;;;;;;13.00;78.20;;;;;;2089265;28;738;-61
2020/12/04 03:47:51;;;;;;;;;;;13.00;78.20;;;;;;2089202;28;752;-61
2020/12/04 03:49:13;;;;;;;;;;;13.00;78.20;;;;;;2089476;28;710;-61
2020/12/04 03:50:32;;;;;;;;;;;13.00;78.90;;;;;;2082551;28;931;-58
2020/12/04 03:51:52;;;;;;;;;;;13.00;78.10;;;;;;2079754;28;1749;-62
2020/12/04 03:53:11;;;;;;;;;;;13.00;78.20;;;;;;2080699;28;1173;-61
2020/12/04 03:54:30;;;;;;;;;;;13.00;78.20;;;;;;2076831;28;1370;-61
2020/12/04 03:55:49;;;;;;;;;;;13.00;78.80;;;;;;2073427;28;1209;-61
2020/12/04 03:57:09;;;;;;;;;;;13.00;78.20;;;;;;2079990;28;1247;-60
2020/12/04 03:58:28;;;;;;;;;;;13.00;78.10;;;;;;2091677;28;1374;-61
2020/12/04 03:59:47;;;;;;;;;;;13.00;78.20;;;;;;2087442;28;1200;-62
2020/12/04 04:01:06;;;;;;;;;;;13.00;78.20;;;;;;2078921;28;1261;-60
2020/12/04 04:02:26;;;;;;;;;;;13.00;78.30;;;;;;2085140;28;1429;-61
2020/12/04 04:03:45;;;;;;;;;;;13.00;79.00;;;;;;2086317;28;1240;-60
2020/12/04 04:05:04;;;;;;;;;;;13.00;79.00;;;;;;2075111;28;1271;-61
2020/12/04 04:06:24;;;;;;;;;;;13.00;78.30;;;;;;2084953;28;1166;-60
2020/12/04 04:07:43;;;;;;;;;;;13.00;78.30;;;;;;2088827;28;1402;-62
2020/12/04 04:09:03;;;;;;;;;;;12.90;78.20;;;;;;2081044;28;1029;-60
2020/12/04 04:10:22;;;;;;;;;;;13.00;78.30;;;;;;2077506;28;1122;-61
2020/12/04 04:11:41;;;;;;;;;;;12.90;78.10;;;;;;2078959;28;1149;-60
2020/12/04 04:13:00;;;;;;;;;;;12.90;78.30;;;;;;2086483;28;1034;-61
2020/12/04 04:14:20;;;;;;;;;;;12.90;78.10;;;;;;2081366;28;1102;-60
2020/12/04 04:15:39;;;;;;;;;;;12.90;78.20;;;;;;2080863;28;1281;-60
2020/12/04 04:16:58;;;;;;;;;;;12.90;78.20;;;;;;2089272;28;1270;-61
2020/12/04 04:18:17;;;;;;;;;;;13.00;78.40;;;;;;2086242;28;1179;-60
2020/12/04 04:19:36;;;;;;;;;;;12.90;78.30;;;;;;2087972;28;1115;-60
2020/12/04 04:20:56;;;;;;;;;;;12.90;78.30;;;;;;2089437;28;1192;-61
2020/12/04 04:22:15;;;;;;;;;;;12.90;79.00;;;;;;2085914;28;1460;-62
2020/12/04 04:23:34;;;;;;;;;;;12.90;78.20;;;;;;2086911;28;1153;-60
2020/12/04 04:24:53;;;;;;;;;;;12.90;78.30;;;;;;2088440;28;1187;-59
2020/12/04 04:26:13;;;;;;;;;;;12.90;78.10;;;;;;2089528;28;1151;-60
2020/12/04 04:27:32;;;;;;;;;;;12.90;78.10;;;;;;2086235;28;1077;-61
2020/12/04 04:28:51;;;;;;;;;;;12.90;78.30;;;;;;2089973;28;1398;-60
2020/12/04 04:30:11;;;;;;;;;;;12.90;78.30;;;;;;2089790;28;1252;-61
2020/12/04 04:31:30;;;;;;;;;;;12.90;78.40;;;;;;2086654;28;1140;-61
2020/12/04 04:32:49;;;;;;;;;;;12.90;78.40;;;;;;2085995;28;1505;-62
2020/12/04 04:34:08;;;;;;;;;;;12.90;78.40;;;;;;2093449;28;1033;-61
2020/12/04 04:35:28;;;;;;;;;;;12.90;78.40;;;;;;2072740;28;1153;-59
2020/12/04 04:36:47;;;;;;;;;;;12.90;78.40;;;;;;2093421;28;728;-60
2020/12/04 04:38:06;;;;;;;;;;;12.90;78.40;;;;;;2085405;28;1973;-60
2020/12/04 04:39:25;;;;;;;;;;;12.90;79.10;;;;;;2082479;28;786;-59
2020/12/04 04:40:44;;;;;;;;;;;12.90;79.10;;;;;;2091373;28;751;-61
2020/12/04 04:42:03;;;;;;;;;;;12.90;77.20;;;;;;2093639;28;1630;-59
2020/12/04 04:43:23;;;;;;;;;;;12.70;76.90;;;;;;2086785;28;1354;-61
2020/12/04 04:44:44;;;;;;;;;;;12.70;76.00;;;;;;2089314;28;1076;-62
2020/12/04 04:46:13;;;;;;;;;;;12.70;75.70;;;;;;2075583;28;1083;-61
2020/12/04 04:47:32;;;;;;;;;;;12.70;75.20;;;;;;2073557;28;740;-61
2020/12/04 04:48:54;;;;;;;;;;;12.70;75.50;;;;;;2077908;28;827;-59
2020/12/04 04:50:13;;;;;;;;;;;12.70;76.30;;;;;;2081202;28;738;-61
2020/12/04 04:51:32;;;;;;;;;;;12.70;76.80;;;;;;2080486;28;742;-62
2020/12/04 04:52:52;;;;;;;;;;;12.70;76.80;;;;;;2081642;28;1397;-59
2020/12/04 04:54:11;;;;;;;;;;;12.70;76.80;;;;;;2072180;28;935;-61
2020/12/04 04:55:30;;;;;;;;;;;12.70;76.90;;;;;;2072055;28;920;-60
2020/12/04 04:56:50;;;;;;;;;;;12.70;76.90;;;;;;2076266;28;1182;-59
2020/12/04 04:58:09;;;;;;;;;;;12.80;76.90;;;;;;2074537;28;1993;-61
2020/12/04 04:59:28;;;;;;;;;;;12.80;77.00;;;;;;2081041;28;782;-59
2020/12/04 05:00:47;;;;;;;;;;;12.80;77.60;;;;;;2087088;28;740;-60
2020/12/04 05:02:10;;;;;;;;;;;12.80;76.90;;;;;;2085461;28;1365;-61
2020/12/04 05:03:29;;;;;;;;;;;12.80;77.00;;;;;;2087821;28;712;-59
2020/12/04 05:04:55;;;;;;;;;;;12.70;76.90;;;;;;2078159;28;725;-60
2020/12/04 05:06:15;;;;;;;;;;;12.70;76.90;;;;;;2080018;28;815;-61
2020/12/04 05:07:34;;;;;;;;;;;12.80;77.00;;;;;;2075973;28;729;-60
2020/12/04 05:08:53;;;;;;;;;;;12.70;76.90;;;;;;2078806;28;716;-59
2020/12/04 05:10:13;;;;;;;;;;;12.80;77.10;;;;;;2083849;28;776;-59
2020/12/04 05:11:33;;;;;;;;;;;12.70;77.00;;;;;;2087364;28;762;-59
2020/12/04 05:13:01;;;;;;;;;;;12.70;76.90;;;;;;2087035;28;1468;-61
2020/12/04 05:14:23;;;;;;;;;;;12.70;76.90;;;;;;2088350;28;727;-61
2020/12/04 05:15:42;;;;;;;;;;;12.80;77.10;;;;;;2078826;28;782;-60
2020/12/04 05:17:05;;;;;;;;;;;12.80;77.00;;;;;;2087040;28;759;-61
2020/12/04 05:18:24;;;;;;;;;;;12.70;77.10;;;;;;2087734;28;760;-59
2020/12/04 05:19:43;;;;;;;;;;;12.70;76.90;;;;;;2087210;28;735;-59
2020/12/04 05:21:03;;;;;;;;;;;12.70;77.10;;;;;;2087046;28;714;-60
2020/12/04 05:22:22;;;;;;;;;;;12.70;77.20;;;;;;2087187;28;1444;-59
2020/12/04 05:23:48;;;;;;;;;;;12.70;76.40;;;;;;2088459;28;765;-60
2020/12/04 05:25:13;;;;;;;;;;;12.70;77.10;;;;;;2082598;28;1056;-60
2020/12/04 05:26:33;;;;;;;;;;;12.70;76.90;;;;;;2079325;28;936;-59
2020/12/04 05:27:52;;;;;;;;;;;12.70;78.00;;;;;;2095416;28;775;-60
2020/12/04 05:29:12;;;;;;;;;;;12.70;77.30;;;;;;2095415;28;766;-60
2020/12/04 05:30:31;;;;;;;;;;;12.70;77.20;;;;;;2095563;28;719;-59
2020/12/04 05:31:50;;;;;;;;;;;12.70;77.20;;;;;;2095502;28;735;-60
2020/12/04 05:33:09;;;;;;;;;;;12.70;77.10;;;;;;2095037;28;975;-60
2020/12/04 05:34:29;;;;;;;;;;;12.70;77.20;;;;;;2087376;28;729;-59
2020/12/04 05:35:51;;;;;;;;;;;12.70;77.40;;;;;;2092196;28;740;-60
2020/12/04 05:37:10;;;;;;;;;;;12.70;77.20;;;;;;2095728;28;765;-61
2020/12/04 05:38:29;;;;;;;;;;;12.70;77.40;;;;;;2095312;28;710;-60
2020/12/04 05:39:48;;;;;;;;;;;12.70;77.40;;;;;;2095098;28;886;-58
2020/12/04 05:41:08;;;;;;;;;;;12.70;77.20;;;;;;2095303;28;753;-59
2020/12/04 05:42:31;;;;;;;;;;;12.70;78.10;;;;;;2087003;28;1381;-60
2020/12/04 05:43:51;;;;;;;;;;;12.70;77.50;;;;;;2093011;28;718;-60
2020/12/04 05:45:11;;;;;;;;;;;12.70;77.40;;;;;;2086468;28;781;-60
2020/12/04 05:46:30;;;;;;;;;;;12.70;77.50;;;;;;2092168;28;716;-61
2020/12/04 05:47:49;;;;;;;;;;;12.70;77.30;;;;;;2095134;28;764;-60
2020/12/04 05:49:09;;;;;;;;;;;12.70;77.50;;;;;;2095369;28;753;-59
2020/12/04 05:50:28;;;;;;;;;;;12.70;77.30;;;;;;2098811;28;720;-59
2020/12/04 05:51:48;;;;;;;;;;;12.70;77.50;;;;;;2090072;28;749;-59
2020/12/04 05:53:08;;;;;;;;;;;12.70;78.20;;;;;;2095254;28;733;-60
2020/12/04 05:54:27;;;;;;;;;;;12.60;77.30;;;;;;2070924;28;1032;-59
2020/12/04 05:55:53;;;;;;;;;;;12.60;77.50;;;;;;2091948;28;1078;-60
2020/12/04 05:57:13;;;;;;;;;;;12.60;77.50;;;;;;2086246;28;1071;-61
2020/12/04 05:58:32;;;;;;;;;;;12.60;77.30;;;;;;2092764;28;748;-61
2020/12/04 05:59:51;;;;;;;;;;;12.70;77.60;;;;;;2095168;28;712;-60
2020/12/04 06:01:10;;;;;;;;;;;12.70;77.60;;;;;;2094958;28;729;-61
2020/12/04 06:02:29;;;;;;;;;;;12.60;78.10;;;;;;2086692;28;1365;-59
2020/12/04 06:03:52;;;;;;;;;;;12.70;78.10;;;;;;2095620;28;725;-60
2020/12/04 06:05:12;;;;;;;;;;;12.60;78.20;;;;;;2089322;28;761;-59
2020/12/04 06:06:32;;;;;;;;;;;12.60;77.60;;;;;;2091817;28;743;-61
2020/12/04 06:07:51;;;;;;;;;;;12.60;77.60;;;;;;2093851;28;1134;-61
2020/12/04 06:09:10;;;;;;;;;;;12.60;77.70;;;;;;2094642;28;749;-60
2020/12/04 06:10:31;;;;;;;;;;;12.60;77.60;;;;;;2086825;28;753;-60
2020/12/04 06:11:50;;;;;;;;;;;12.60;77.70;;;;;;2095029;28;772;-61
2020/12/04 06:13:09;;;;;;;;;;;12.60;78.50;;;;;;2098104;28;733;-61
2020/12/04 06:14:28;;;;;;;;;;;12.60;77.70;;;;;;2098703;28;720;-60
2020/12/04 06:15:48;;;;;;;;;;;12.60;78.30;;;;;;2098286;28;745;-61
2020/12/04 06:17:07;;;;;;;;;;;12.60;77.60;;;;;;2086804;28;861;-59
2020/12/04 06:18:28;;;;;;;;;;;12.60;77.60;;;;;;2092011;28;710;-60
2020/12/04 06:19:48;;;;;;;;;;;12.60;77.70;;;;;;2095506;28;764;-60
2020/12/04 06:21:07;;;;;;;;;;;12.60;77.60;;;;;;2086878;28;815;-59
2020/12/04 06:22:26;;;;;;;;;;;12.60;77.80;;;;;;2095109;28;1460;-60
2020/12/04 06:24:14;;;;;;;;;;;12.60;77.90;;;;;;2089683;28;1013;-60
2020/12/04 06:25:49;;;;;;;;;;;12.60;77.80;;;;;;2080172;28;1274;-60
2020/12/04 06:27:08;;;;;;;;;;;12.60;77.80;;;;;;2092124;28;1027;-60
2020/12/04 06:28:28;;;;;;;;;;;12.60;77.80;;;;;;2078389;28;776;-60
2020/12/04 06:29:53;;;;;;;;;;;12.60;77.80;;;;;;2067214;28;835;-60
2020/12/04 06:31:13;;;;;;;;;;;12.60;77.90;;;;;;2074680;28;774;-60
2020/12/04 06:32:36;;;;;;;;;;;12.60;77.90;;;;;;2083543;28;1393;-60
2020/12/04 06:33:54;;;;;;;;;;;12.60;77.70;;;;;;2087027;28;730;-58
2020/12/04 06:35:14;;;;;;;;;;;12.60;77.70;;;;;;2085787;28;769;-60
2020/12/04 06:36:34;;;;;;;;;;;12.60;77.90;;;;;;2090228;28;756;-60
2020/12/04 06:37:54;;;;;;;;;;;12.50;77.80;;;;;;2089575;28;1899;-59
2020/12/04 06:39:29;;;;;;;;;;;12.50;78.40;;;;;;2078252;28;802;-60
2020/12/04 06:40:48;;;;;;;;;;;12.50;78.60;;;;;;2093792;28;1406;-60
2020/12/04 06:42:08;;;;;;;;;;;12.50;77.90;;;;;;2098631;28;1458;-59
2020/12/04 06:43:33;;;;;;;;;;;12.50;77.90;;;;;;2098087;28;753;-59
2020/12/04 06:44:52;;;;;;;;;;;12.50;78.10;;;;;;2094952;28;735;-60
2020/12/04 06:46:30;;;;;;;;;;;12.60;78.10;;;;;;2094357;28;742;-60
2020/12/04 06:48:08;;;;;;;;;;;12.60;78.00;;;;;;2088981;28;731;-61
2020/12/04 06:49:36;;;;;;;;;;;12.50;77.90;;;;;;2088409;28;777;-60
2020/12/04 06:50:55;;;;;;;;;;;12.50;77.90;;;;;;2096184;28;706;-60
2020/12/04 06:52:20;;;;;;;;;;;12.60;77.90;;;;;;2088677;28;1356;-60
2020/12/04 06:53:39;;;;;;;;;;;12.50;77.90;;;;;;2092534;28;906;-61
2020/12/04 06:54:58;;;;;;;;;;;12.50;77.90;;;;;;2089848;28;1017;-61
2020/12/04 06:56:18;;;;;;;;;;;12.50;78.00;;;;;;2087170;28;1064;-59
2020/12/04 06:57:37;;;;;;;;;;;12.50;77.90;;;;;;2078141;28;1902;-60
2020/12/04 06:58:56;;;;;;;;;;;12.50;78.00;;;;;;2081895;28;749;-60
2020/12/04 07:00:15;;;;;;;;;;;12.50;78.00;;;;;;2081694;28;721;-61
2020/12/04 07:01:34;;;;;;;;;;;12.50;78.00;;;;;;2070205;28;755;-59
2020/12/04 07:02:53;;;;;;;;;;;12.50;78.90;;;;;;2078541;28;1354;-60
2020/12/04 07:04:13;;;;;;;;;;;12.50;78.20;;;;;;2082085;28;728;-60
2020/12/04 07:05:34;;;;;;;;;;;12.50;78.90;;;;;;2080727;28;736;-60
2020/12/04 07:07:00;;;;;;;;;;;12.50;78.00;;;;;;2081814;28;720;-61
2020/12/04 07:08:19;;;;;;;;;;;12.50;78.00;;;;;;2082081;28;707;-60
2020/12/04 07:09:39;;;;;;;;;;;12.50;78.10;;;;;;2081023;28;712;-59
2020/12/04 07:10:58;;;;;;;;;;;12.50;78.10;;;;;;2078182;28;775;-60
2020/12/04 07:12:20;;;;;;;;;;;12.50;78.20;;;;;;2069811;28;1448;-60
2020/12/04 07:13:39;;;;;;;;;;;12.50;78.20;;;;;;2070092;28;746;-60
2020/12/04 07:14:59;;;;;;;;;;;12.50;78.10;;;;;;2078056;28;734;-60
2020/12/04 07:16:18;;;;;;;;;;;12.50;78.10;;;;;;2072920;28;771;-60
2020/12/04 07:17:37;;;;;;;;;;;12.50;78.20;;;;;;2077829;28;1902;-60
2020/12/04 07:18:56;;;;;;;;;;;12.50;78.30;;;;;;2073234;28;731;-60
2020/12/04 07:20:16;;;;;;;;;;;12.50;78.30;;;;;;2076208;28;794;-60
2020/12/04 07:21:35;;;;;;;;;;;12.50;78.20;;;;;;2075414;28;786;-59
2020/12/04 07:22:54;;;;;;;;;;;12.50;78.20;;;;;;2072846;28;1480;-60
2020/12/04 07:24:13;;;;;;;;;;;12.40;78.10;;;;;;2075655;28;971;-60
2020/12/04 07:25:33;;;;;;;;;;;12.40;78.10;;;;;;2079684;28;1029;-58
2020/12/04 07:26:52;;;;;;;;;;;12.40;78.10;;;;;;2093831;28;1015;-59
2020/12/04 07:28:11;;;;;;;;;;;12.50;79.00;;;;;;2089733;28;721;-60
2020/12/04 07:29:30;;;;;;;;;;;12.40;78.20;;;;;;2081350;28;741;-60
2020/12/04 07:30:50;;;;;;;;;;;12.50;78.30;;;;;;2083049;28;722;-59
2020/12/04 07:32:09;;;;;;;;;;;12.50;78.30;;;;;;2086122;28;1312;-59
2020/12/04 07:33:28;;;;;;;;;;;12.40;78.30;;;;;;2086330;28;741;-60
2020/12/04 07:34:48;;;;;;;;;;;12.50;78.30;;;;;;2089079;28;788;-59
2020/12/04 07:36:07;;;;;;;;;;;12.50;78.10;;;;;;2081081;28;776;-60
2020/12/04 07:37:26;;;;;;;;;;;12.50;78.20;;;;;;2082900;28;1977;-59
2020/12/04 07:38:49;;;;;;;;;;;12.40;78.10;;;;;;2089528;28;753;-60
2020/12/04 07:40:08;;;;;;;;;;;12.40;78.10;;;;;;2088955;28;797;-60
2020/12/04 07:41:31;;;;;;;;;;;12.40;78.90;;;;;;2086272;28;790;-60
2020/12/04 07:42:51;;;;;;;;;;;12.40;78.90;;;;;;2086185;28;1373;-59
2020/12/04 07:44:10;;;;;;;;;;;12.40;78.20;;;;;;2069784;28;836;-60
2020/12/04 07:45:30;;;;;;;;;;;12.40;78.30;;;;;;2082272;28;723;-60
2020/12/04 07:46:52;;;;;;;;;;;12.50;78.40;;;;;;2081103;28;809;-59
2020/12/04 07:48:11;;;;;;;;;;;12.40;78.30;;;;;;2075304;28;736;-58
2020/12/04 07:49:30;;;;;;;;;;;12.50;78.30;;;;;;2078044;28;739;-59
2020/12/04 07:50:50;;;;;;;;;;;12.40;79.00;;;;;;2074633;28;765;-59
2020/12/04 07:52:21;;;;;;;;;;;12.40;79.00;;;;;;2082814;28;1456;-59
2020/12/04 07:53:41;;;;;;;;;;;12.40;78.30;;;;;;2085584;28;1146;-60
2020/12/04 07:55:04;;;;;;;;;;;12.40;78.20;;;;;;2090111;28;1074;-59
2020/12/04 07:56:23;;;;;;;;;;;12.40;78.20;;;;;;2080929;28;1084;-60
2020/12/04 07:57:43;;;;;;;;;;;12.40;78.30;;;;;;2074532;28;1999;-60